sensor_id;sensor_type;location;lat;lon;timestamp;P1;durP1;ratioP1;P2;durP2;ratioP2
16199;SDS011;8207;52.494;4.654;2022-12-18T00:02:15;117.60;;;43.37;;
16199;SDS011;8207;52.494;4.654;2022-12-18T00:04:42;120.37;;;44.70;;
16199;SDS011;8207;52.494;4.654;2022-12-18T00:07:09;112.23;;;42.00;;
16199;SDS011;8207;52.494;4.654;2022-12-18T00:09:36;113.50;;;42.27;;
16199;SDS011;8207;52.494;4.654;2022-12-18T00:12:03;112.17;;;42.00;;
16199;SDS011;8207;52.494;4.654;2022-12-18T00:14:32;116.57;;;42.00;;
16199;SDS011;8207;52.494;4.654;2022-12-18T00:16:58;102.40;;;39.37;;
16199;SDS011;8207;52.494;4.654;2022-12-18T00:19:25;123.40;;;42.23;;
16199;SDS011;8207;52.494;4.654;2022-12-18T00:21:53;112.67;;;39.47;;
16199;SDS011;8207;52.494;4.654;2022-12-18T00:24:20;114.53;;;39.00;;
16199;SDS011;8207;52.494;4.654;2022-12-18T00:26:47;104.07;;;38.77;;
16199;SDS011;8207;52.494;4.654;2022-12-18T00:29:14;109.47;;;41.57;;
16199;SDS011;8207;52.494;4.654;2022-12-18T00:31:42;115.67;;;40.73;;
16199;SDS011;8207;52.494;4.654;2022-12-18T00:34:09;104.33;;;40.33;;
16199;SDS011;8207;52.494;4.654;2022-12-18T00:36:37;100.40;;;37.23;;
16199;SDS011;8207;52.494;4.654;2022-12-18T00:39:05;97.13;;;36.53;;
16199;SDS011;8207;52.494;4.654;2022-12-18T00:41:32;106.63;;;37.83;;
16199;SDS011;8207;52.494;4.654;2022-12-18T00:44:16;106.67;;;37.73;;
16199;SDS011;8207;52.494;4.654;2022-12-18T00:46:46;104.43;;;38.40;;
16199;SDS011;8207;52.494;4.654;2022-12-18T00:49:13;97.23;;;36.87;;
16199;SDS011;8207;52.494;4.654;2022-12-18T00:51:41;96.83;;;36.93;;
16199;SDS011;8207;52.494;4.654;2022-12-18T00:54:08;101.80;;;36.20;;
16199;SDS011;8207;52.494;4.654;2022-12-18T00:56:35;96.53;;;37.23;;
16199;SDS011;8207;52.494;4.654;2022-12-18T00:59:03;101.70;;;37.97;;
16199;SDS011;8207;52.494;4.654;2022-12-18T01:01:31;97.23;;;37.10;;
16199;SDS011;8207;52.494;4.654;2022-12-18T01:04:00;102.10;;;35.40;;
16199;SDS011;8207;52.494;4.654;2022-12-18T01:06:28;89.87;;;37.27;;
16199;SDS011;8207;52.494;4.654;2022-12-18T01:08:55;106.87;;;39.03;;
16199;SDS011;8207;52.494;4.654;2022-12-18T01:11:22;104.27;;;40.37;;
16199;SDS011;8207;52.494;4.654;2022-12-18T01:13:51;99.77;;;39.37;;
16199;SDS011;8207;52.494;4.654;2022-12-18T01:16:19;92.07;;;38.70;;
16199;SDS011;8207;52.494;4.654;2022-12-18T01:18:46;102.73;;;38.50;;
16199;SDS011;8207;52.494;4.654;2022-12-18T01:21:14;111.87;;;41.17;;
16199;SDS011;8207;52.494;4.654;2022-12-18T01:23:42;113.17;;;40.40;;
16199;SDS011;8207;52.494;4.654;2022-12-18T01:26:09;101.83;;;37.63;;
16199;SDS011;8207;52.494;4.654;2022-12-18T01:28:38;110.67;;;39.63;;
16199;SDS011;8207;52.494;4.654;2022-12-18T01:31:09;104.40;;;37.37;;
16199;SDS011;8207;52.494;4.654;2022-12-18T01:33:37;101.50;;;36.13;;
16199;SDS011;8207;52.494;4.654;2022-12-18T01:36:04;106.47;;;37.73;;
16199;SDS011;8207;52.494;4.654;2022-12-18T01:38:33;88.60;;;34.57;;
16199;SDS011;8207;52.494;4.654;2022-12-18T01:41:00;94.07;;;35.47;;
16199;SDS011;8207;52.494;4.654;2022-12-18T01:43:44;93.23;;;34.90;;
16199;SDS011;8207;52.494;4.654;2022-12-18T01:46:13;91.23;;;34.73;;
16199;SDS011;8207;52.494;4.654;2022-12-18T01:48:41;89.13;;;35.97;;
16199;SDS011;8207;52.494;4.654;2022-12-18T01:51:10;103.27;;;37.37;;
16199;SDS011;8207;52.494;4.654;2022-12-18T01:53:40;97.63;;;38.57;;
16199;SDS011;8207;52.494;4.654;2022-12-18T01:56:08;96.30;;;36.43;;
16199;SDS011;8207;52.494;4.654;2022-12-18T01:58:41;100.70;;;35.43;;
16199;SDS011;8207;52.494;4.654;2022-12-18T02:01:14;110.93;;;38.10;;
16199;SDS011;8207;52.494;4.654;2022-12-18T02:03:42;111.17;;;40.90;;
16199;SDS011;8207;52.494;4.654;2022-12-18T02:06:12;103.60;;;36.73;;
16199;SDS011;8207;52.494;4.654;2022-12-18T02:08:45;91.63;;;34.07;;
16199;SDS011;8207;52.494;4.654;2022-12-18T02:11:21;86.80;;;34.90;;
16199;SDS011;8207;52.494;4.654;2022-12-18T02:13:57;89.27;;;34.07;;
16199;SDS011;8207;52.494;4.654;2022-12-18T02:16:33;89.70;;;35.27;;
16199;SDS011;8207;52.494;4.654;2022-12-18T02:19:06;89.63;;;34.00;;
16199;SDS011;8207;52.494;4.654;2022-12-18T02:21:44;93.83;;;35.50;;
16199;SDS011;8207;52.494;4.654;2022-12-18T02:24:24;97.90;;;34.53;;
16199;SDS011;8207;52.494;4.654;2022-12-18T02:27:00;102.03;;;36.03;;
16199;SDS011;8207;52.494;4.654;2022-12-18T02:29:31;86.00;;;33.43;;
16199;SDS011;8207;52.494;4.654;2022-12-18T02:32:03;95.13;;;34.43;;
16199;SDS011;8207;52.494;4.654;2022-12-18T02:34:35;102.70;;;36.60;;
16199;SDS011;8207;52.494;4.654;2022-12-18T02:37:05;93.03;;;35.50;;
16199;SDS011;8207;52.494;4.654;2022-12-18T02:39:37;98.63;;;36.93;;
16199;SDS011;8207;52.494;4.654;2022-12-18T02:42:07;92.67;;;34.53;;
16199;SDS011;8207;52.494;4.654;2022-12-18T02:44:35;104.93;;;36.67;;
16199;SDS011;8207;52.494;4.654;2022-12-18T02:47:09;105.40;;;38.20;;
16199;SDS011;8207;52.494;4.654;2022-12-18T02:49:40;106.53;;;38.17;;
16199;SDS011;8207;52.494;4.654;2022-12-18T02:52:16;96.00;;;36.50;;
16199;SDS011;8207;52.494;4.654;2022-12-18T02:54:52;96.43;;;37.77;;
16199;SDS011;8207;52.494;4.654;2022-12-18T02:57:30;97.47;;;36.33;;
16199;SDS011;8207;52.494;4.654;2022-12-18T03:00:02;97.50;;;34.23;;
16199;SDS011;8207;52.494;4.654;2022-12-18T03:02:34;79.97;;;31.80;;
16199;SDS011;8207;52.494;4.654;2022-12-18T03:05:07;87.30;;;32.77;;
16199;SDS011;8207;52.494;4.654;2022-12-18T03:07:40;82.20;;;32.20;;
16199;SDS011;8207;52.494;4.654;2022-12-18T03:10:12;90.70;;;31.67;;
16199;SDS011;8207;52.494;4.654;2022-12-18T03:12:43;83.40;;;30.47;;
16199;SDS011;8207;52.494;4.654;2022-12-18T03:15:14;85.10;;;31.50;;
16199;SDS011;8207;52.494;4.654;2022-12-18T03:17:48;76.77;;;30.67;;
16199;SDS011;8207;52.494;4.654;2022-12-18T03:20:25;85.47;;;31.83;;
16199;SDS011;8207;52.494;4.654;2022-12-18T03:22:57;85.23;;;32.33;;
16199;SDS011;8207;52.494;4.654;2022-12-18T03:25:36;79.97;;;31.53;;
16199;SDS011;8207;52.494;4.654;2022-12-18T03:28:07;87.13;;;32.23;;
16199;SDS011;8207;52.494;4.654;2022-12-18T03:30:39;84.67;;;32.43;;
16199;SDS011;8207;52.494;4.654;2022-12-18T03:33:07;80.20;;;33.37;;
16199;SDS011;8207;52.494;4.654;2022-12-18T03:35:38;78.13;;;31.77;;
16199;SDS011;8207;52.494;4.654;2022-12-18T03:38:08;84.73;;;32.60;;
16199;SDS011;8207;52.494;4.654;2022-12-18T03:40:40;81.00;;;33.73;;
16199;SDS011;8207;52.494;4.654;2022-12-18T03:43:16;80.87;;;33.43;;
16199;SDS011;8207;52.494;4.654;2022-12-18T03:45:51;86.03;;;34.90;;
16199;SDS011;8207;52.494;4.654;2022-12-18T03:48:24;83.07;;;33.00;;
16199;SDS011;8207;52.494;4.654;2022-12-18T03:50:56;83.67;;;33.03;;
16199;SDS011;8207;52.494;4.654;2022-12-18T03:53:27;89.50;;;31.93;;
16199;SDS011;8207;52.494;4.654;2022-12-18T03:56:00;79.77;;;32.97;;
16199;SDS011;8207;52.494;4.654;2022-12-18T03:58:31;84.30;;;32.50;;
16199;SDS011;8207;52.494;4.654;2022-12-18T04:01:01;85.23;;;33.00;;
16199;SDS011;8207;52.494;4.654;2022-12-18T04:03:31;89.93;;;32.60;;
16199;SDS011;8207;52.494;4.654;2022-12-18T04:06:00;80.07;;;33.53;;
16199;SDS011;8207;52.494;4.654;2022-12-18T04:08:27;74.40;;;29.70;;
16199;SDS011;8207;52.494;4.654;2022-12-18T04:10:55;81.90;;;31.70;;
16199;SDS011;8207;52.494;4.654;2022-12-18T04:13:23;78.07;;;31.03;;
16199;SDS011;8207;52.494;4.654;2022-12-18T04:15:51;70.47;;;30.23;;
16199;SDS011;8207;52.494;4.654;2022-12-18T04:18:18;66.37;;;28.13;;
16199;SDS011;8207;52.494;4.654;2022-12-18T04:20:45;62.80;;;29.63;;
16199;SDS011;8207;52.494;4.654;2022-12-18T04:23:12;57.87;;;26.93;;
16199;SDS011;8207;52.494;4.654;2022-12-18T04:25:39;66.30;;;29.07;;
16199;SDS011;8207;52.494;4.654;2022-12-18T04:28:06;65.40;;;29.50;;
16199;SDS011;8207;52.494;4.654;2022-12-18T04:30:33;64.93;;;28.73;;
16199;SDS011;8207;52.494;4.654;2022-12-18T04:33:01;67.10;;;29.83;;
16199;SDS011;8207;52.494;4.654;2022-12-18T04:35:28;68.43;;;29.03;;
16199;SDS011;8207;52.494;4.654;2022-12-18T04:37:56;60.50;;;27.03;;
16199;SDS011;8207;52.494;4.654;2022-12-18T04:40:23;60.77;;;28.70;;
16199;SDS011;8207;52.494;4.654;2022-12-18T04:42:49;71.13;;;31.00;;
16199;SDS011;8207;52.494;4.654;2022-12-18T04:45:16;63.30;;;27.37;;
16199;SDS011;8207;52.494;4.654;2022-12-18T04:47:43;63.43;;;28.23;;
16199;SDS011;8207;52.494;4.654;2022-12-18T04:50:11;62.43;;;28.70;;
16199;SDS011;8207;52.494;4.654;2022-12-18T04:52:38;55.87;;;26.50;;
16199;SDS011;8207;52.494;4.654;2022-12-18T04:55:05;58.07;;;28.50;;
16199;SDS011;8207;52.494;4.654;2022-12-18T04:57:33;60.80;;;28.63;;
16199;SDS011;8207;52.494;4.654;2022-12-18T04:59:59;59.03;;;27.53;;
16199;SDS011;8207;52.494;4.654;2022-12-18T05:02:26;58.33;;;27.83;;
16199;SDS011;8207;52.494;4.654;2022-12-18T05:04:53;58.70;;;25.97;;
16199;SDS011;8207;52.494;4.654;2022-12-18T05:07:21;52.90;;;25.23;;
16199;SDS011;8207;52.494;4.654;2022-12-18T05:09:48;52.43;;;24.43;;
16199;SDS011;8207;52.494;4.654;2022-12-18T05:12:15;62.57;;;25.93;;
16199;SDS011;8207;52.494;4.654;2022-12-18T05:14:42;60.97;;;27.33;;
16199;SDS011;8207;52.494;4.654;2022-12-18T05:17:09;62.60;;;27.37;;
16199;SDS011;8207;52.494;4.654;2022-12-18T05:19:36;56.43;;;25.70;;
16199;SDS011;8207;52.494;4.654;2022-12-18T05:22:02;55.33;;;26.27;;
16199;SDS011;8207;52.494;4.654;2022-12-18T05:24:31;62.37;;;27.33;;
16199;SDS011;8207;52.494;4.654;2022-12-18T05:26:58;52.37;;;26.40;;
16199;SDS011;8207;52.494;4.654;2022-12-18T05:29:24;57.57;;;27.17;;
16199;SDS011;8207;52.494;4.654;2022-12-18T05:31:51;51.47;;;26.37;;
16199;SDS011;8207;52.494;4.654;2022-12-18T05:34:19;60.70;;;26.90;;
16199;SDS011;8207;52.494;4.654;2022-12-18T05:36:45;62.07;;;27.20;;
16199;SDS011;8207;52.494;4.654;2022-12-18T05:39:12;62.20;;;27.77;;
16199;SDS011;8207;52.494;4.654;2022-12-18T05:41:41;57.27;;;27.77;;
16199;SDS011;8207;52.494;4.654;2022-12-18T05:44:08;53.03;;;25.93;;
16199;SDS011;8207;52.494;4.654;2022-12-18T05:46:35;64.03;;;28.70;;
16199;SDS011;8207;52.494;4.654;2022-12-18T05:49:02;57.67;;;26.33;;
16199;SDS011;8207;52.494;4.654;2022-12-18T05:51:29;58.93;;;27.23;;
16199;SDS011;8207;52.494;4.654;2022-12-18T05:53:56;59.87;;;29.03;;
16199;SDS011;8207;52.494;4.654;2022-12-18T05:56:23;59.67;;;27.37;;
16199;SDS011;8207;52.494;4.654;2022-12-18T05:58:52;61.17;;;28.07;;
16199;SDS011;8207;52.494;4.654;2022-12-18T06:01:20;53.23;;;26.73;;
16199;SDS011;8207;52.494;4.654;2022-12-18T06:03:49;63.40;;;29.13;;
16199;SDS011;8207;52.494;4.654;2022-12-18T06:06:17;59.50;;;28.10;;
16199;SDS011;8207;52.494;4.654;2022-12-18T06:08:45;63.20;;;27.70;;
16199;SDS011;8207;52.494;4.654;2022-12-18T06:11:12;60.73;;;29.13;;
16199;SDS011;8207;52.494;4.654;2022-12-18T06:13:41;68.27;;;30.00;;
16199;SDS011;8207;52.494;4.654;2022-12-18T06:16:10;66.50;;;29.63;;
16199;SDS011;8207;52.494;4.654;2022-12-18T06:18:37;59.97;;;27.93;;
16199;SDS011;8207;52.494;4.654;2022-12-18T06:21:04;64.37;;;29.07;;
16199;SDS011;8207;52.494;4.654;2022-12-18T06:23:31;61.17;;;30.03;;
16199;SDS011;8207;52.494;4.654;2022-12-18T06:25:58;65.57;;;28.87;;
16199;SDS011;8207;52.494;4.654;2022-12-18T06:28:25;58.53;;;28.27;;
16199;SDS011;8207;52.494;4.654;2022-12-18T06:30:52;56.60;;;27.57;;
16199;SDS011;8207;52.494;4.654;2022-12-18T06:33:20;61.80;;;28.67;;
16199;SDS011;8207;52.494;4.654;2022-12-18T06:35:47;62.17;;;29.60;;
16199;SDS011;8207;52.494;4.654;2022-12-18T06:38:14;60.90;;;30.10;;
16199;SDS011;8207;52.494;4.654;2022-12-18T06:40:41;57.27;;;28.80;;
16199;SDS011;8207;52.494;4.654;2022-12-18T06:43:08;62.30;;;27.30;;
16199;SDS011;8207;52.494;4.654;2022-12-18T06:45:35;60.50;;;30.07;;
16199;SDS011;8207;52.494;4.654;2022-12-18T06:48:02;57.37;;;28.33;;
16199;SDS011;8207;52.494;4.654;2022-12-18T06:50:30;64.33;;;28.00;;
16199;SDS011;8207;52.494;4.654;2022-12-18T06:52:57;56.60;;;27.80;;
16199;SDS011;8207;52.494;4.654;2022-12-18T06:55:24;55.13;;;27.70;;
16199;SDS011;8207;52.494;4.654;2022-12-18T06:57:51;51.87;;;27.03;;
16199;SDS011;8207;52.494;4.654;2022-12-18T07:00:18;59.70;;;28.57;;
16199;SDS011;8207;52.494;4.654;2022-12-18T07:02:45;57.47;;;27.30;;
16199;SDS011;8207;52.494;4.654;2022-12-18T07:05:11;59.77;;;26.47;;
16199;SDS011;8207;52.494;4.654;2022-12-18T07:07:40;58.47;;;28.70;;
16199;SDS011;8207;52.494;4.654;2022-12-18T07:10:07;63.33;;;29.03;;
16199;SDS011;8207;52.494;4.654;2022-12-18T07:12:34;57.27;;;26.53;;
16199;SDS011;8207;52.494;4.654;2022-12-18T07:15:02;61.63;;;28.67;;
16199;SDS011;8207;52.494;4.654;2022-12-18T07:17:30;51.67;;;25.93;;
16199;SDS011;8207;52.494;4.654;2022-12-18T07:19:57;57.30;;;26.83;;
16199;SDS011;8207;52.494;4.654;2022-12-18T07:22:24;55.67;;;26.53;;
16199;SDS011;8207;52.494;4.654;2022-12-18T07:24:53;54.23;;;25.80;;
16199;SDS011;8207;52.494;4.654;2022-12-18T07:27:20;53.50;;;24.97;;
16199;SDS011;8207;52.494;4.654;2022-12-18T07:29:47;52.50;;;25.80;;
16199;SDS011;8207;52.494;4.654;2022-12-18T07:32:14;51.77;;;25.43;;
16199;SDS011;8207;52.494;4.654;2022-12-18T07:34:41;56.73;;;27.00;;
16199;SDS011;8207;52.494;4.654;2022-12-18T07:37:08;56.43;;;27.30;;
16199;SDS011;8207;52.494;4.654;2022-12-18T07:39:35;56.70;;;27.80;;
16199;SDS011;8207;52.494;4.654;2022-12-18T07:42:04;51.03;;;25.23;;
16199;SDS011;8207;52.494;4.654;2022-12-18T07:44:48;58.23;;;26.50;;
16199;SDS011;8207;52.494;4.654;2022-12-18T07:47:15;52.00;;;25.20;;
16199;SDS011;8207;52.494;4.654;2022-12-18T07:49:42;53.03;;;24.87;;
16199;SDS011;8207;52.494;4.654;2022-12-18T07:52:09;51.10;;;27.37;;
16199;SDS011;8207;52.494;4.654;2022-12-18T07:54:37;53.50;;;25.83;;
16199;SDS011;8207;52.494;4.654;2022-12-18T07:57:06;55.17;;;26.17;;
16199;SDS011;8207;52.494;4.654;2022-12-18T07:59:34;52.37;;;24.87;;
16199;SDS011;8207;52.494;4.654;2022-12-18T08:02:01;52.17;;;26.43;;
16199;SDS011;8207;52.494;4.654;2022-12-18T08:04:28;49.80;;;24.47;;
16199;SDS011;8207;52.494;4.654;2022-12-18T08:06:54;51.97;;;26.10;;
16199;SDS011;8207;52.494;4.654;2022-12-18T08:09:22;49.83;;;25.13;;
16199;SDS011;8207;52.494;4.654;2022-12-18T08:11:49;47.87;;;23.57;;
16199;SDS011;8207;52.494;4.654;2022-12-18T08:14:17;49.87;;;25.13;;
16199;SDS011;8207;52.494;4.654;2022-12-18T08:16:44;45.07;;;23.10;;
16199;SDS011;8207;52.494;4.654;2022-12-18T08:19:11;44.13;;;22.53;;
16199;SDS011;8207;52.494;4.654;2022-12-18T08:21:40;39.63;;;20.87;;
16199;SDS011;8207;52.494;4.654;2022-12-18T08:24:09;39.17;;;21.93;;
16199;SDS011;8207;52.494;4.654;2022-12-18T08:26:36;41.40;;;21.33;;
16199;SDS011;8207;52.494;4.654;2022-12-18T08:29:03;38.87;;;21.07;;
16199;SDS011;8207;52.494;4.654;2022-12-18T08:31:32;42.87;;;21.53;;
16199;SDS011;8207;52.494;4.654;2022-12-18T08:33:59;37.60;;;20.83;;
16199;SDS011;8207;52.494;4.654;2022-12-18T08:36:26;35.77;;;20.13;;
16199;SDS011;8207;52.494;4.654;2022-12-18T08:38:53;33.90;;;20.47;;
16199;SDS011;8207;52.494;4.654;2022-12-18T08:41:20;37.60;;;20.17;;
16199;SDS011;8207;52.494;4.654;2022-12-18T08:43:48;31.37;;;18.40;;
16199;SDS011;8207;52.494;4.654;2022-12-18T08:46:35;35.00;;;19.67;;
16199;SDS011;8207;52.494;4.654;2022-12-18T08:49:04;32.90;;;20.00;;
16199;SDS011;8207;52.494;4.654;2022-12-18T08:51:32;36.47;;;19.83;;
16199;SDS011;8207;52.494;4.654;2022-12-18T08:53:59;32.17;;;20.43;;
16199;SDS011;8207;52.494;4.654;2022-12-18T08:56:26;34.13;;;20.43;;
16199;SDS011;8207;52.494;4.654;2022-12-18T08:58:55;32.73;;;19.47;;
16199;SDS011;8207;52.494;4.654;2022-12-18T09:01:22;30.30;;;18.30;;
16199;SDS011;8207;52.494;4.654;2022-12-18T09:03:51;29.03;;;18.03;;
16199;SDS011;8207;52.494;4.654;2022-12-18T09:06:18;32.13;;;17.87;;
16199;SDS011;8207;52.494;4.654;2022-12-18T09:08:46;31.07;;;18.50;;
16199;SDS011;8207;52.494;4.654;2022-12-18T09:11:14;31.50;;;18.10;;
16199;SDS011;8207;52.494;4.654;2022-12-18T09:13:46;27.97;;;16.97;;
16199;SDS011;8207;52.494;4.654;2022-12-18T09:16:13;27.87;;;18.07;;
16199;SDS011;8207;52.494;4.654;2022-12-18T09:18:40;29.07;;;16.40;;
16199;SDS011;8207;52.494;4.654;2022-12-18T09:21:08;29.70;;;16.93;;
16199;SDS011;8207;52.494;4.654;2022-12-18T09:23:37;28.47;;;17.50;;
16199;SDS011;8207;52.494;4.654;2022-12-18T09:26:03;29.13;;;17.70;;
16199;SDS011;8207;52.494;4.654;2022-12-18T09:28:30;27.30;;;16.20;;
16199;SDS011;8207;52.494;4.654;2022-12-18T09:30:57;27.83;;;17.13;;
16199;SDS011;8207;52.494;4.654;2022-12-18T09:33:24;30.33;;;17.63;;
16199;SDS011;8207;52.494;4.654;2022-12-18T09:35:51;26.40;;;17.00;;
16199;SDS011;8207;52.494;4.654;2022-12-18T09:38:20;27.20;;;16.77;;
16199;SDS011;8207;52.494;4.654;2022-12-18T09:40:48;25.90;;;16.63;;
16199;SDS011;8207;52.494;4.654;2022-12-18T09:43:19;27.60;;;17.77;;
16199;SDS011;8207;52.494;4.654;2022-12-18T09:45:57;26.97;;;17.40;;
16199;SDS011;8207;52.494;4.654;2022-12-18T09:48:27;28.10;;;18.10;;
16199;SDS011;8207;52.494;4.654;2022-12-18T09:50:59;27.47;;;17.47;;
16199;SDS011;8207;52.494;4.654;2022-12-18T09:53:31;29.47;;;17.67;;
16199;SDS011;8207;52.494;4.654;2022-12-18T09:56:02;26.90;;;17.73;;
16199;SDS011;8207;52.494;4.654;2022-12-18T09:58:32;27.87;;;18.10;;
16199;SDS011;8207;52.494;4.654;2022-12-18T10:01:08;28.87;;;18.63;;
16199;SDS011;8207;52.494;4.654;2022-12-18T10:03:36;26.03;;;17.17;;
16199;SDS011;8207;52.494;4.654;2022-12-18T10:06:06;27.73;;;16.83;;
16199;SDS011;8207;52.494;4.654;2022-12-18T10:08:41;27.37;;;17.83;;
16199;SDS011;8207;52.494;4.654;2022-12-18T10:11:21;28.73;;;17.77;;
16199;SDS011;8207;52.494;4.654;2022-12-18T10:13:55;25.43;;;17.67;;
16199;SDS011;8207;52.494;4.654;2022-12-18T10:16:27;27.00;;;17.70;;
16199;SDS011;8207;52.494;4.654;2022-12-18T10:19:07;26.50;;;17.20;;
16199;SDS011;8207;52.494;4.654;2022-12-18T10:21:51;33.00;;;19.10;;
16199;SDS011;8207;52.494;4.654;2022-12-18T10:24:27;30.23;;;18.33;;
16199;SDS011;8207;52.494;4.654;2022-12-18T10:27:07;27.87;;;17.57;;
16199;SDS011;8207;52.494;4.654;2022-12-18T10:29:40;27.10;;;17.23;;
16199;SDS011;8207;52.494;4.654;2022-12-18T10:32:08;28.33;;;17.43;;
16199;SDS011;8207;52.494;4.654;2022-12-18T10:34:41;27.83;;;18.27;;
16199;SDS011;8207;52.494;4.654;2022-12-18T10:37:12;25.57;;;17.27;;
16199;SDS011;8207;52.494;4.654;2022-12-18T10:39:44;23.57;;;16.80;;
16199;SDS011;8207;52.494;4.654;2022-12-18T10:42:11;27.00;;;17.93;;
16199;SDS011;8207;52.494;4.654;2022-12-18T10:44:44;24.30;;;16.60;;
16199;SDS011;8207;52.494;4.654;2022-12-18T10:47:11;26.87;;;16.60;;
16199;SDS011;8207;52.494;4.654;2022-12-18T10:49:42;22.73;;;15.90;;
16199;SDS011;8207;52.494;4.654;2022-12-18T10:52:15;27.43;;;16.43;;
16199;SDS011;8207;52.494;4.654;2022-12-18T10:54:49;24.83;;;16.50;;
16199;SDS011;8207;52.494;4.654;2022-12-18T10:57:28;27.43;;;16.60;;
16199;SDS011;8207;52.494;4.654;2022-12-18T10:59:58;24.17;;;16.20;;
16199;SDS011;8207;52.494;4.654;2022-12-18T11:02:28;26.67;;;17.00;;
16199;SDS011;8207;52.494;4.654;2022-12-18T11:05:01;24.07;;;16.03;;
16199;SDS011;8207;52.494;4.654;2022-12-18T11:07:40;23.00;;;15.23;;
16199;SDS011;8207;52.494;4.654;2022-12-18T11:10:17;28.30;;;17.67;;
16199;SDS011;8207;52.494;4.654;2022-12-18T11:12:45;23.00;;;15.87;;
16199;SDS011;8207;52.494;4.654;2022-12-18T11:15:16;24.17;;;15.93;;
16199;SDS011;8207;52.494;4.654;2022-12-18T11:17:46;25.63;;;16.77;;
16199;SDS011;8207;52.494;4.654;2022-12-18T11:20:30;24.67;;;16.03;;
16199;SDS011;8207;52.494;4.654;2022-12-18T11:23:00;24.33;;;16.73;;
16199;SDS011;8207;52.494;4.654;2022-12-18T11:25:30;29.90;;;16.70;;
16199;SDS011;8207;52.494;4.654;2022-12-18T11:27:59;23.33;;;16.10;;
16199;SDS011;8207;52.494;4.654;2022-12-18T11:30:27;21.97;;;15.03;;
16199;SDS011;8207;52.494;4.654;2022-12-18T11:32:56;22.93;;;14.70;;
16199;SDS011;8207;52.494;4.654;2022-12-18T11:35:34;24.20;;;15.40;;
16199;SDS011;8207;52.494;4.654;2022-12-18T11:38:06;24.10;;;16.27;;
16199;SDS011;8207;52.494;4.654;2022-12-18T11:40:42;20.17;;;14.40;;
16199;SDS011;8207;52.494;4.654;2022-12-18T11:43:13;21.27;;;14.07;;
16199;SDS011;8207;52.494;4.654;2022-12-18T11:45:43;21.90;;;14.47;;
16199;SDS011;8207;52.494;4.654;2022-12-18T11:48:16;22.63;;;15.90;;
16199;SDS011;8207;52.494;4.654;2022-12-18T11:50:48;22.77;;;15.37;;
16199;SDS011;8207;52.494;4.654;2022-12-18T11:53:17;21.67;;;14.00;;
16199;SDS011;8207;52.494;4.654;2022-12-18T11:55:58;22.50;;;14.43;;
16199;SDS011;8207;52.494;4.654;2022-12-18T11:58:35;19.67;;;13.93;;
16199;SDS011;8207;52.494;4.654;2022-12-18T12:01:13;20.40;;;13.83;;
16199;SDS011;8207;52.494;4.654;2022-12-18T12:03:51;22.40;;;14.60;;
16199;SDS011;8207;52.494;4.654;2022-12-18T12:06:28;21.20;;;14.33;;
16199;SDS011;8207;52.494;4.654;2022-12-18T12:09:03;20.43;;;14.33;;
16199;SDS011;8207;52.494;4.654;2022-12-18T12:11:41;21.60;;;14.63;;
16199;SDS011;8207;52.494;4.654;2022-12-18T12:14:24;23.13;;;15.47;;
16199;SDS011;8207;52.494;4.654;2022-12-18T12:17:06;25.57;;;15.57;;
16199;SDS011;8207;52.494;4.654;2022-12-18T12:19:42;21.90;;;15.73;;
16199;SDS011;8207;52.494;4.654;2022-12-18T12:22:18;30.20;;;17.03;;
16199;SDS011;8207;52.494;4.654;2022-12-18T12:24:57;23.97;;;16.20;;
16199;SDS011;8207;52.494;4.654;2022-12-18T12:27:39;23.07;;;16.23;;
16199;SDS011;8207;52.494;4.654;2022-12-18T12:30:16;20.63;;;14.73;;
16199;SDS011;8207;52.494;4.654;2022-12-18T12:32:49;20.73;;;14.80;;
16199;SDS011;8207;52.494;4.654;2022-12-18T12:35:29;21.07;;;13.63;;
16199;SDS011;8207;52.494;4.654;2022-12-18T12:38:05;21.37;;;13.60;;
16199;SDS011;8207;52.494;4.654;2022-12-18T12:40:37;20.47;;;13.67;;
16199;SDS011;8207;52.494;4.654;2022-12-18T12:43:12;18.50;;;13.83;;
16199;SDS011;8207;52.494;4.654;2022-12-18T12:45:50;21.97;;;15.47;;
16199;SDS011;8207;52.494;4.654;2022-12-18T12:48:28;20.57;;;14.40;;
16199;SDS011;8207;52.494;4.654;2022-12-18T12:51:01;21.07;;;14.37;;
16199;SDS011;8207;52.494;4.654;2022-12-18T12:53:34;19.97;;;14.63;;
16199;SDS011;8207;52.494;4.654;2022-12-18T12:56:04;21.23;;;13.30;;
16199;SDS011;8207;52.494;4.654;2022-12-18T12:58:36;21.43;;;14.57;;
16199;SDS011;8207;52.494;4.654;2022-12-18T13:01:12;19.10;;;14.43;;
16199;SDS011;8207;52.494;4.654;2022-12-18T13:03:48;20.87;;;14.47;;
16199;SDS011;8207;52.494;4.654;2022-12-18T13:06:23;20.23;;;13.37;;
16199;SDS011;8207;52.494;4.654;2022-12-18T13:09:00;21.53;;;15.10;;
16199;SDS011;8207;52.494;4.654;2022-12-18T13:11:32;19.40;;;14.40;;
16199;SDS011;8207;52.494;4.654;2022-12-18T13:14:34;22.87;;;15.10;;
16199;SDS011;8207;52.494;4.654;2022-12-18T13:20:02;20.90;;;14.47;;
16199;SDS011;8207;52.494;4.654;2022-12-18T13:22:35;19.57;;;13.17;;
16199;SDS011;8207;52.494;4.654;2022-12-18T13:28:00;23.27;;;14.57;;
16199;SDS011;8207;52.494;4.654;2022-12-18T13:30:42;23.47;;;15.03;;
16199;SDS011;8207;52.494;4.654;2022-12-18T13:36:23;23.70;;;15.07;;
16199;SDS011;8207;52.494;4.654;2022-12-18T13:48:26;20.77;;;13.80;;
16199;SDS011;8207;52.494;4.654;2022-12-18T13:50:58;20.00;;;14.13;;
16199;SDS011;8207;52.494;4.654;2022-12-18T13:53:30;21.50;;;13.90;;
16199;SDS011;8207;52.494;4.654;2022-12-18T13:56:01;21.77;;;14.10;;
16199;SDS011;8207;52.494;4.654;2022-12-18T13:58:29;19.10;;;14.17;;
16199;SDS011;8207;52.494;4.654;2022-12-18T14:00:57;19.60;;;14.50;;
16199;SDS011;8207;52.494;4.654;2022-12-18T14:03:27;20.73;;;13.90;;
16199;SDS011;8207;52.494;4.654;2022-12-18T14:05:56;22.50;;;14.53;;
16199;SDS011;8207;52.494;4.654;2022-12-18T14:08:34;22.07;;;14.67;;
16199;SDS011;8207;52.494;4.654;2022-12-18T14:11:04;20.03;;;14.00;;
16199;SDS011;8207;52.494;4.654;2022-12-18T14:13:33;17.20;;;13.13;;
16199;SDS011;8207;52.494;4.654;2022-12-18T14:16:05;19.63;;;14.33;;
16199;SDS011;8207;52.494;4.654;2022-12-18T14:18:38;21.53;;;13.93;;
16199;SDS011;8207;52.494;4.654;2022-12-18T14:21:15;20.90;;;14.20;;
16199;SDS011;8207;52.494;4.654;2022-12-18T14:23:49;18.77;;;12.57;;
16199;SDS011;8207;52.494;4.654;2022-12-18T14:26:31;21.77;;;13.17;;
16199;SDS011;8207;52.494;4.654;2022-12-18T14:28:58;19.70;;;12.43;;
16199;SDS011;8207;52.494;4.654;2022-12-18T14:31:29;21.73;;;13.33;;
16199;SDS011;8207;52.494;4.654;2022-12-18T14:33:57;18.83;;;12.57;;
16199;SDS011;8207;52.494;4.654;2022-12-18T14:36:24;18.83;;;12.77;;
16199;SDS011;8207;52.494;4.654;2022-12-18T14:38:53;19.67;;;12.97;;
16199;SDS011;8207;52.494;4.654;2022-12-18T14:41:21;21.40;;;15.03;;
16199;SDS011;8207;52.494;4.654;2022-12-18T14:43:49;21.70;;;13.83;;
16199;SDS011;8207;52.494;4.654;2022-12-18T14:46:29;19.97;;;13.07;;
16199;SDS011;8207;52.494;4.654;2022-12-18T14:49:00;20.53;;;13.70;;
16199;SDS011;8207;52.494;4.654;2022-12-18T14:51:29;19.43;;;13.03;;
16199;SDS011;8207;52.494;4.654;2022-12-18T14:53:57;18.90;;;12.60;;
16199;SDS011;8207;52.494;4.654;2022-12-18T14:56:27;20.33;;;12.60;;
16199;SDS011;8207;52.494;4.654;2022-12-18T14:58:56;18.37;;;11.83;;
16199;SDS011;8207;52.494;4.654;2022-12-18T15:01:29;21.27;;;13.23;;
16199;SDS011;8207;52.494;4.654;2022-12-18T15:03:59;19.53;;;13.13;;
16199;SDS011;8207;52.494;4.654;2022-12-18T15:06:28;23.50;;;13.93;;
16199;SDS011;8207;52.494;4.654;2022-12-18T15:08:57;17.60;;;12.27;;
16199;SDS011;8207;52.494;4.654;2022-12-18T15:11:31;21.70;;;13.70;;